createdAt,value
2022-12-17T00:02:37.797Z,64.50
2022-12-17T00:05:24.480Z,66.00
2022-12-17T00:08:17.653Z,64.97
2022-12-17T00:11:03.812Z,66.25
2022-12-17T00:13:49.177Z,67.93
2022-12-17T00:16:35.077Z,64.97
2022-12-17T00:19:20.769Z,63.42
2022-12-17T00:22:06.293Z,63.35
2022-12-17T00:24:52.131Z,61.95
2022-12-17T00:27:37.276Z,64.18
2022-12-17T00:30:23.164Z,63.97
2022-12-17T00:33:09.865Z,63.72
2022-12-17T00:35:55.854Z,64.32
2022-12-17T00:38:42.166Z,65.82
2022-12-17T00:41:27.821Z,66.45
2022-12-17T00:44:13.414Z,65.40
2022-12-17T00:46:58.746Z,63.90
2022-12-17T00:49:44.675Z,60.53
2022-12-17T00:52:30.016Z,65.25
2022-12-17T00:55:15.794Z,65.00
2022-12-17T00:58:00.969Z,66.03
2022-12-17T01:00:46.755Z,61.00
2022-12-17T01:03:36.993Z,63.63
2022-12-17T01:09:11.166Z,63.20
2022-12-17T01:11:56.814Z,62.70
2022-12-17T01:14:43.724Z,61.33
2022-12-17T01:17:29.671Z,64.78
2022-12-17T01:20:15.654Z,62.63
2022-12-17T01:23:01.014Z,62.70
2022-12-17T01:25:46.823Z,63.40
2022-12-17T01:28:32.124Z,63.85
2022-12-17T01:31:17.911Z,66.13
2022-12-17T01:34:03.433Z,64.90
2022-12-17T01:36:48.457Z,61.55
2022-12-17T01:39:34.197Z,63.45
2022-12-17T01:42:19.489Z,60.60
2022-12-17T01:45:14.916Z,64.07
2022-12-17T01:48:26.414Z,61.45
2022-12-17T01:51:14.848Z,62.67
2022-12-17T01:54:04.925Z,63.55
2022-12-17T01:56:51.553Z,62.65
2022-12-17T01:59:44.707Z,63.17
2022-12-17T02:02:29.902Z,62.17
2022-12-17T02:05:16.790Z,61.28
2022-12-17T02:08:37.539Z,60.05
2022-12-17T02:11:33.831Z,61.35
2022-12-17T02:14:31.560Z,58.97
2022-12-17T02:17:21.556Z,61.22
2022-12-17T02:20:22.209Z,60.15
2022-12-17T02:23:25.263Z,62.75
2022-12-17T02:26:20.271Z,58.55
2022-12-17T02:29:10.192Z,58.63
2022-12-17T02:31:58.971Z,62.75
2022-12-17T02:34:45.024Z,60.63
2022-12-17T02:37:30.360Z,61.63
2022-12-17T02:40:16.709Z,58.95
2022-12-17T02:43:07.116Z,59.38
2022-12-17T02:45:55.990Z,61.67
2022-12-17T02:48:42.816Z,63.72
2022-12-17T02:51:28.458Z,63.28
2022-12-17T02:54:14.464Z,63.22
2022-12-17T02:56:59.580Z,67.45
2022-12-17T02:59:45.393Z,63.17
2022-12-17T03:02:34.435Z,63.17
2022-12-17T03:05:43.939Z,62.53
2022-12-17T03:08:26.300Z,61.88
2022-12-17T03:11:12.117Z,64.65
2022-12-17T03:13:57.606Z,65.88
2022-12-17T03:16:42.722Z,62.75
2022-12-17T03:19:29.022Z,64.88
2022-12-17T03:22:14.903Z,66.43
2022-12-17T03:25:00.682Z,66.53
2022-12-17T03:27:45.994Z,67.35
2022-12-17T03:30:35.992Z,65.15
2022-12-17T03:33:22.550Z,65.80
2022-12-17T03:36:12.078Z,65.78
2022-12-17T03:38:57.767Z,66.20
2022-12-17T03:41:43.165Z,63.47
2022-12-17T03:44:28.836Z,62.75
2022-12-17T03:47:13.880Z,65.07
2022-12-17T03:49:59.763Z,64.32
2022-12-17T03:52:45.173Z,63.30
2022-12-17T03:55:30.795Z,67.32
2022-12-17T03:58:16.217Z,63.97
2022-12-17T04:01:02.019Z,63.10
2022-12-17T04:03:47.566Z,59.30
2022-12-17T04:06:32.789Z,58.92
2022-12-17T04:09:18.539Z,57.35
2022-12-17T04:12:04.024Z,59.30
2022-12-17T04:14:49.634Z,58.92
2022-12-17T04:17:34.931Z,61.17
2022-12-17T04:20:20.661Z,61.13
2022-12-17T04:23:06.341Z,60.92
2022-12-17T04:25:51.538Z,61.25
2022-12-17T04:28:37.109Z,60.58
2022-12-17T04:31:22.376Z,61.58
2022-12-17T04:34:08.182Z,59.72
2022-12-17T04:36:53.301Z,59.45
2022-12-17T04:39:39.037Z,57.28
2022-12-17T04:42:24.359Z,59.13
2022-12-17T04:45:10.342Z,59.45
2022-12-17T04:47:55.409Z,58.10
2022-12-17T04:50:42.874Z,59.40
2022-12-17T04:53:28.747Z,56.47
2022-12-17T04:56:14.547Z,55.75
2022-12-17T04:59:00.337Z,57.15
2022-12-17T05:01:46.181Z,54.13
2022-12-17T05:04:32.316Z,55.38
2022-12-17T05:07:31.272Z,52.58
2022-12-17T05:10:17.230Z,52.75
2022-12-17T05:13:02.555Z,49.65
2022-12-17T05:15:52.955Z,51.15
2022-12-17T05:18:38.855Z,50.38
2022-12-17T05:21:24.917Z,50.28
2022-12-17T05:24:10.836Z,55.83
2022-12-17T05:26:56.109Z,50.10
2022-12-17T05:29:43.196Z,53.63
2022-12-17T05:32:28.745Z,51.80
2022-12-17T05:35:14.417Z,52.95
2022-12-17T05:37:59.537Z,51.25
2022-12-17T05:40:45.417Z,49.28
2022-12-17T05:43:31.445Z,48.80
2022-12-17T05:46:17.306Z,51.35
2022-12-17T05:49:03.139Z,48.95
2022-12-17T05:51:48.509Z,46.58
2022-12-17T05:54:34.178Z,48.90
2022-12-17T05:57:19.686Z,50.35
2022-12-17T06:00:05.525Z,51.05
2022-12-17T06:02:57.396Z,49.83
2022-12-17T06:05:43.401Z,50.35
2022-12-17T06:08:28.905Z,49.90
2022-12-17T06:11:18.323Z,48.72
2022-12-17T06:14:05.138Z,50.13
2022-12-17T06:16:50.652Z,52.50
2022-12-17T06:19:36.391Z,52.20
2022-12-17T06:22:21.587Z,50.97
2022-12-17T06:25:07.402Z,47.80
2022-12-17T06:27:52.898Z,48.42
2022-12-17T06:30:38.775Z,47.78
2022-12-17T06:33:28.968Z,47.22
2022-12-17T06:36:21.991Z,46.20
2022-12-17T06:39:09.277Z,44.70
2022-12-17T06:42:00.571Z,44.30
2022-12-17T06:44:50.356Z,44.28
2022-12-17T06:47:35.495Z,42.55
2022-12-17T06:50:21.322Z,42.75
2022-12-17T06:53:06.567Z,42.30
2022-12-17T06:55:52.356Z,42.63
2022-12-17T06:58:37.904Z,43.35
2022-12-17T07:01:23.924Z,41.58
2022-12-17T07:04:09.296Z,37.80
2022-12-17T07:06:55.076Z,35.67
2022-12-17T07:09:40.861Z,38.08
2022-12-17T07:12:26.246Z,37.53
2022-12-17T07:15:12.011Z,40.65
2022-12-17T07:17:57.328Z,41.25
2022-12-17T07:20:42.997Z,38.17
2022-12-17T07:23:28.465Z,35.85
2022-12-17T07:26:16.190Z,37.88
2022-12-17T07:29:01.538Z,38.92
2022-12-17T07:31:47.588Z,36.30
2022-12-17T07:34:32.790Z,36.78
2022-12-17T07:37:20.638Z,35.22
2022-12-17T07:40:06.480Z,32.17
2022-12-17T07:42:51.545Z,35.25
2022-12-17T07:45:42.278Z,34.33
2022-12-17T07:48:27.715Z,34.72
2022-12-17T07:51:13.452Z,31.92
2022-12-17T07:53:58.879Z,32.75
2022-12-17T07:56:44.733Z,34.30
2022-12-17T07:59:30.360Z,31.83
2022-12-17T08:02:15.932Z,32.40
2022-12-17T08:05:02.171Z,31.60
2022-12-17T08:07:47.384Z,30.45
2022-12-17T08:10:33.353Z,30.80
2022-12-17T08:13:23.944Z,29.58
2022-12-17T08:16:11.945Z,29.85
2022-12-17T08:18:57.764Z,30.15
2022-12-17T08:21:43.585Z,32.45
2022-12-17T08:24:29.001Z,33.33
2022-12-17T08:27:14.920Z,33.70
2022-12-17T08:29:59.965Z,36.03
2022-12-17T08:32:45.801Z,34.45
2022-12-17T08:35:31.095Z,35.35
2022-12-17T08:38:21.437Z,36.83
2022-12-17T08:41:07.413Z,37.22
2022-12-17T08:43:52.866Z,36.05
2022-12-17T08:46:38.724Z,37.80
2022-12-17T08:49:24.274Z,35.13
2022-12-17T08:52:10.085Z,35.83
2022-12-17T08:54:55.614Z,37.72
2022-12-17T08:57:41.565Z,34.97
2022-12-17T09:00:28.106Z,38.20
2022-12-17T09:03:20.422Z,36.88
2022-12-17T09:06:06.285Z,37.20
2022-12-17T09:08:51.624Z,37.33
2022-12-17T09:11:37.238Z,37.05
2022-12-17T09:14:22.623Z,41.08
2022-12-17T09:17:08.636Z,40.58
2022-12-17T09:19:53.760Z,43.67
2022-12-17T09:22:39.499Z,41.83
2022-12-17T09:25:25.319Z,40.75
2022-12-17T09:28:10.856Z,41.13
2022-12-17T09:30:56.901Z,39.47
2022-12-17T09:33:41.967Z,40.58
2022-12-17T09:36:28.239Z,40.35
2022-12-17T09:39:13.683Z,40.00
2022-12-17T09:42:02.512Z,42.90
2022-12-17T09:45:12.199Z,44.42
2022-12-17T09:48:00.487Z,40.17
2022-12-17T09:50:46.492Z,38.72
2022-12-17T09:53:43.668Z,38.47
2022-12-17T09:56:31.893Z,43.08
2022-12-17T09:59:17.374Z,44.30
2022-12-17T10:02:03.534Z,41.67
2022-12-17T10:04:57.304Z,43.67
2022-12-17T10:07:50.834Z,43.15
2022-12-17T10:10:45.800Z,43.55
2022-12-17T10:13:33.572Z,44.53
2022-12-17T10:16:19.888Z,40.05
2022-12-17T10:19:06.274Z,42.60
2022-12-17T10:21:53.704Z,45.22
2022-12-17T10:24:38.905Z,40.85
2022-12-17T10:27:36.229Z,42.55
2022-12-17T10:30:22.189Z,42.33
2022-12-17T10:33:14.817Z,47.20
2022-12-17T10:36:00.717Z,42.80
2022-12-17T10:38:48.744Z,41.88
2022-12-17T10:41:41.573Z,44.45
2022-12-17T10:44:45.253Z,43.28
2022-12-17T10:47:37.393Z,44.00
2022-12-17T10:50:35.386Z,43.28
2022-12-17T10:53:22.163Z,43.58
2022-12-17T10:56:15.406Z,45.50
2022-12-17T11:01:54.583Z,41.53
2022-12-17T11:05:03.391Z,43.85
2022-12-17T11:08:02.818Z,43.20
2022-12-17T11:10:50.728Z,43.05
2022-12-17T11:13:47.266Z,46.30
2022-12-17T11:16:44.166Z,43.75
2022-12-17T11:19:29.241Z,46.72
2022-12-17T11:22:31.979Z,45.00
2022-12-17T11:25:26.490Z,48.22
2022-12-17T11:28:30.951Z,45.10
2022-12-17T11:31:46.040Z,45.88
2022-12-17T11:34:54.972Z,47.13
2022-12-17T11:38:02.213Z,45.50
2022-12-17T11:40:57.303Z,46.42
2022-12-17T11:44:19.621Z,46.83
2022-12-17T11:47:17.709Z,45.97
2022-12-17T11:50:15.578Z,45.30
2022-12-17T11:53:27.525Z,49.78
2022-12-17T11:56:42.154Z,44.70
2022-12-17T11:59:53.998Z,42.22
2022-12-17T12:02:53.870Z,49.40
2022-12-17T12:06:06.003Z,49.65
2022-12-17T12:09:06.849Z,51.78
2022-12-17T12:12:02.293Z,50.17
2022-12-17T12:14:47.415Z,48.33
2022-12-17T12:18:12.486Z,51.13
2022-12-17T12:21:18.130Z,48.75
2022-12-17T12:24:23.086Z,48.80
2022-12-17T12:27:29.798Z,48.65
2022-12-17T12:30:28.779Z,49.55
2022-12-17T12:33:27.855Z,50.50
2022-12-17T12:36:20.729Z,52.70
2022-12-17T12:39:09.919Z,51.95
2022-12-17T12:42:11.926Z,54.40
2022-12-17T12:45:29.384Z,52.72
2022-12-17T12:48:41.184Z,50.75
2022-12-17T12:51:37.813Z,49.67
2022-12-17T12:54:45.370Z,51.28
2022-12-17T12:57:52.408Z,51.08
2022-12-17T13:00:49.882Z,52.35
2022-12-17T13:03:50.009Z,51.80
2022-12-17T13:06:49.818Z,52.53
2022-12-17T13:09:20.781Z,54.70
2022-12-17T13:12:00.147Z,51.50
2022-12-17T13:14:34.905Z,55.58
2022-12-17T13:17:07.488Z,54.67
2022-12-17T13:19:40.454Z,51.88
2022-12-17T13:22:16.649Z,55.13
2022-12-17T13:24:54.374Z,57.08
2022-12-17T13:27:39.219Z,53.00
2022-12-17T13:30:17.698Z,50.97
2022-12-17T13:33:03.971Z,55.13
2022-12-17T13:35:49.406Z,53.60
2022-12-17T13:38:48.350Z,62.78
2022-12-17T13:41:35.542Z,55.60
2022-12-17T13:44:17.727Z,56.25
2022-12-17T13:46:48.048Z,52.08
2022-12-17T13:49:17.799Z,53.88
2022-12-17T13:51:44.939Z,54.67
2022-12-17T13:54:19.698Z,56.05
2022-12-17T13:56:46.899Z,54.65
2022-12-17T13:59:20.720Z,47.72
2022-12-17T14:01:50.339Z,55.72
2022-12-17T14:04:26.433Z,54.47
2022-12-17T14:06:56.595Z,51.80
2022-12-17T14:09:34.691Z,54.22
2022-12-17T14:12:22.356Z,52.83
2022-12-17T14:14:55.826Z,52.30
2022-12-17T14:17:28.911Z,53.33
2022-12-17T14:20:12.939Z,49.63
2022-12-17T14:22:47.782Z,49.13
2022-12-17T14:25:21.650Z,46.65
2022-12-17T14:27:57.680Z,45.67
2022-12-17T14:31:09.700Z,49.85
2022-12-17T14:33:29.603Z,47.70
2022-12-17T14:35:57.793Z,49.20
2022-12-17T14:38:48.242Z,50.65
2022-12-17T14:41:32.776Z,50.92
2022-12-17T14:44:01.739Z,52.65
2022-12-17T14:46:30.164Z,51.47
2022-12-17T14:49:01.309Z,48.53
2022-12-17T14:51:40.404Z,53.20
2022-12-17T14:54:22.015Z,49.20
2022-12-17T14:56:50.217Z,47.13
2022-12-17T14:59:37.648Z,51.72
2022-12-17T15:02:26.919Z,53.13
2022-12-17T15:04:58.065Z,56.47
2022-12-17T15:07:28.272Z,52.97
2022-12-17T15:09:56.174Z,57.60
2022-12-17T15:12:24.972Z,52.47
2022-12-17T15:14:51.630Z,65.65
2022-12-17T15:17:19.053Z,52.83
2022-12-17T15:19:45.707Z,52.42
2022-12-17T15:22:17.478Z,51.85
2022-12-17T15:24:45.199Z,51.95
2022-12-17T15:27:14.411Z,52.80
2022-12-17T15:29:41.240Z,53.67
2022-12-17T15:32:21.269Z,56.15
2022-12-17T15:34:48.217Z,51.65
2022-12-17T15:37:19.780Z,54.90
2022-12-17T15:39:49.325Z,53.28
2022-12-17T15:42:34.448Z,53.08
2022-12-17T15:45:01.033Z,52.10
2022-12-17T15:47:28.325Z,51.75
2022-12-17T15:49:54.916Z,54.53
2022-12-17T15:52:21.888Z,52.88
2022-12-17T15:54:49.226Z,55.20
2022-12-17T15:57:18.689Z,55.80
2022-12-17T15:59:45.651Z,54.85
2022-12-17T16:02:13.276Z,66.72
2022-12-17T16:04:40.966Z,62.28
2022-12-17T16:07:08.326Z,62.92
2022-12-17T16:09:34.956Z,68.00
2022-12-17T16:12:02.249Z,66.88
2022-12-17T16:14:28.845Z,64.25
2022-12-17T16:16:56.167Z,61.53
2022-12-17T16:19:23.017Z,61.30
2022-12-17T16:21:50.379Z,61.10
2022-12-17T16:24:17.042Z,59.92
2022-12-17T16:26:44.363Z,57.75
2022-12-17T16:29:11.209Z,58.97
2022-12-17T16:31:38.573Z,62.42
2022-12-17T16:34:09.750Z,61.72
2022-12-17T16:36:36.943Z,61.53
2022-12-17T16:39:04.911Z,61.50
2022-12-17T16:41:32.919Z,56.95
2022-12-17T16:44:00.594Z,54.53
2022-12-17T16:46:46.660Z,54.40
2022-12-17T16:49:14.611Z,55.80
2022-12-17T16:51:42.401Z,50.97
2022-12-17T16:54:15.199Z,51.20
2022-12-17T16:56:43.431Z,46.55
2022-12-17T16:59:11.567Z,48.72
2022-12-17T17:01:41.158Z,51.63
2022-12-17T17:04:09.498Z,53.88
2022-12-17T17:06:41.928Z,55.63
2022-12-17T17:09:09.039Z,37.85
2022-12-17T17:11:36.488Z,51.55
2022-12-17T17:14:04.087Z,50.55
2022-12-17T17:16:31.648Z,53.15
2022-12-17T17:18:58.412Z,54.65
2022-12-17T17:21:31.748Z,47.78
2022-12-17T17:24:04.073Z,47.55
2022-12-17T17:28:59.743Z,50.13
2022-12-17T17:32:01.147Z,45.78
2022-12-17T17:34:15.049Z,45.15
2022-12-17T17:36:42.305Z,45.22
2022-12-17T17:39:09.374Z,43.70
2022-12-17T17:41:36.886Z,44.78
2022-12-17T17:44:06.088Z,49.92
2022-12-17T17:46:33.370Z,48.53
2022-12-17T17:49:02.538Z,55.72
2022-12-17T17:52:08.005Z,58.35
2022-12-17T17:54:20.827Z,52.15
2022-12-17T17:56:47.552Z,47.65
2022-12-17T17:59:19.024Z,45.80
2022-12-17T18:01:50.855Z,52.28
2022-12-17T18:04:21.053Z,54.75
2022-12-17T18:07:16.513Z,53.90
2022-12-17T18:09:36.113Z,51.35
2022-12-17T18:12:23.459Z,56.50
2022-12-17T18:15:13.141Z,53.65
2022-12-17T18:17:36.809Z,56.28
2022-12-17T18:20:03.923Z,55.63
2022-12-17T18:22:31.200Z,52.53
2022-12-17T18:24:57.777Z,47.58
2022-12-17T18:27:24.732Z,46.90
2022-12-17T18:29:51.329Z,48.05
2022-12-17T18:32:17.932Z,46.50
2022-12-17T18:34:45.255Z,47.95
2022-12-17T18:37:11.913Z,45.17
2022-12-17T18:39:38.605Z,46.80
2022-12-17T18:42:24.419Z,46.80
2022-12-17T18:44:50.997Z,41.38
2022-12-17T18:47:18.628Z,44.03
2022-12-17T18:49:45.965Z,42.25
2022-12-17T18:52:16.754Z,42.97
2022-12-17T18:54:45.127Z,46.50
2022-12-17T18:57:12.006Z,45.70
2022-12-17T18:59:41.352Z,43.25
2022-12-17T19:02:15.400Z,44.75
2022-12-17T19:04:43.084Z,43.33
2022-12-17T19:07:10.439Z,44.65
2022-12-17T19:09:40.583Z,44.15
2022-12-17T19:30:17.927Z,41.50
2022-12-17T19:32:44.947Z,40.83
2022-12-17T19:35:11.729Z,42.45
2022-12-17T19:37:38.964Z,41.22
2022-12-17T19:40:06.072Z,42.42
2022-12-17T19:42:37.411Z,40.75
2022-12-17T19:45:07.574Z,43.20
2022-12-17T19:47:36.768Z,40.92
2022-12-17T19:50:03.935Z,40.22
2022-12-17T19:52:31.259Z,40.08
2022-12-17T19:54:57.845Z,39.08
2022-12-17T19:57:24.779Z,39.35
2022-12-17T20:03:15.393Z,35.25
2022-12-17T20:05:46.018Z,38.00
2022-12-17T20:08:15.057Z,43.33
2022-12-17T20:10:44.783Z,31.13
2022-12-17T20:13:12.306Z,55.83
2022-12-17T20:15:38.964Z,63.17
2022-12-17T20:18:06.359Z,48.97
2022-12-17T20:20:33.183Z,38.53
2022-12-17T20:23:00.499Z,35.13
2022-12-17T20:25:27.091Z,35.63
2022-12-17T20:28:00.515Z,33.75
2022-12-17T20:30:47.960Z,34.85
2022-12-17T20:33:26.455Z,32.88
2022-12-17T20:36:26.908Z,32.55
2022-12-17T20:39:28.199Z,34.53
2022-12-17T20:41:56.656Z,37.53
2022-12-17T20:44:24.137Z,37.30
2022-12-17T20:46:50.783Z,38.25
2022-12-17T20:49:18.047Z,35.13
2022-12-17T20:51:44.837Z,35.17
2022-12-17T20:54:12.276Z,36.55
2022-12-17T20:56:39.941Z,34.58
2022-12-17T20:59:09.424Z,34.70
2022-12-17T21:01:37.500Z,32.15
2022-12-17T21:04:07.596Z,33.72
2022-12-17T21:06:45.246Z,30.85
2022-12-17T21:09:15.326Z,33.50
2022-12-17T21:11:42.601Z,32.28
2022-12-17T21:14:16.535Z,30.42
2022-12-17T21:16:43.752Z,31.58
2022-12-17T21:19:15.524Z,28.98
2022-12-17T21:21:42.666Z,29.88
2022-12-17T21:24:10.514Z,30.73
2022-12-17T21:26:42.817Z,30.52
2022-12-17T21:31:43.686Z,27.48
2022-12-17T21:34:21.839Z,28.05
2022-12-17T21:36:50.087Z,30.23
2022-12-17T21:39:18.954Z,30.95
2022-12-17T21:42:08.292Z,32.97
2022-12-17T21:44:36.641Z,30.45
2022-12-17T21:47:03.443Z,31.30
2022-12-17T21:49:30.785Z,32.72
2022-12-17T21:51:59.363Z,32.30
2022-12-17T21:54:27.327Z,34.50
2022-12-17T21:56:54.143Z,33.25
2022-12-17T21:59:21.563Z,32.20
2022-12-17T22:01:48.944Z,33.28
2022-12-17T22:04:16.707Z,38.03
2022-12-17T22:06:50.849Z,37.35
2022-12-17T22:09:31.557Z,30.00
2022-12-17T22:12:28.419Z,29.30
2022-12-17T22:14:55.868Z,29.15
2022-12-17T22:17:23.183Z,29.90
2022-12-17T22:19:50.750Z,29.83
2022-12-17T22:22:17.483Z,27.98
2022-12-17T22:24:44.905Z,29.05
2022-12-17T22:27:11.777Z,29.63
2022-12-17T22:29:57.438Z,29.30
2022-12-17T22:32:42.791Z,29.55
2022-12-17T22:37:23.674Z,28.58
2022-12-17T22:43:00.817Z,29.85
2022-12-17T22:44:29.269Z,28.98
2022-12-17T22:44:45.326Z,28.10
2022-12-17T22:46:19.837Z,29.35
2022-12-17T22:48:46.874Z,28.10
2022-12-17T22:51:16.281Z,27.77
2022-12-17T22:53:48.550Z,29.23
2022-12-17T22:56:22.220Z,28.45
2022-12-17T22:59:03.226Z,28.42
2022-12-17T23:01:30.222Z,28.23
2022-12-17T23:03:59.784Z,27.48
2022-12-17T23:06:26.648Z,28.27
2022-12-17T23:08:54.628Z,28.20
2022-12-17T23:11:24.286Z,26.75
2022-12-17T23:13:52.354Z,27.00
2022-12-17T23:16:19.580Z,26.65
2022-12-17T23:18:48.705Z,25.67
2022-12-17T23:21:23.750Z,26.45
2022-12-17T23:23:52.556Z,26.73
2022-12-17T23:26:29.174Z,27.40
2022-12-17T23:28:59.374Z,27.13
2022-12-17T23:31:28.489Z,27.90
2022-12-17T23:33:55.846Z,26.17
2022-12-17T23:36:24.019Z,26.33
2022-12-17T23:38:54.257Z,25.13
2022-12-17T23:41:23.731Z,24.95
2022-12-17T23:43:51.112Z,25.75
2022-12-17T23:46:18.576Z,24.77
2022-12-17T23:48:47.187Z,23.00
2022-12-17T23:51:16.367Z,23.40
2022-12-17T23:53:43.929Z,23.00
2022-12-17T23:56:21.851Z,22.13
2022-12-17T23:58:52.604Z,22.42
